createdAt,value
2016-07-03T00:00:39.302Z,75.39
2016-07-03T00:01:39.284Z,75.59
2016-07-03T00:02:39.263Z,76.16
2016-07-03T00:03:39.241Z,75.78
2016-07-03T00:04:39.220Z,75.59
2016-07-03T00:05:39.191Z,75.78
2016-07-03T00:06:39.173Z,75.96
2016-07-03T00:07:39.145Z,75.87
2016-07-03T00:08:39.121Z,76.25
2016-07-03T00:09:39.099Z,75.87
2016-07-03T00:10:39.078Z,76.16
2016-07-03T00:11:39.053Z,75.68
2016-07-03T00:12:39.032Z,76.16
2016-07-03T00:13:39.014Z,76.25
2016-07-03T00:14:38.986Z,76.45
2016-07-03T00:15:38.965Z,76.45
2016-07-03T00:16:38.935Z,76.35
2016-07-03T00:17:38.925Z,76.35
2016-07-03T00:18:38.895Z,76.45
2016-07-03T00:19:38.871Z,76.16
2016-07-03T00:20:38.851Z,76.06
2016-07-03T00:21:38.828Z,76.06
2016-07-03T00:22:38.805Z,76.25
2016-07-03T00:23:38.780Z,75.87
2016-07-03T00:24:38.766Z,76.16
2016-07-03T00:25:38.730Z,76.35
2016-07-03T00:26:38.707Z,75.78
2016-07-03T00:27:38.679Z,75.59
2016-07-03T00:28:38.662Z,75.39
2016-07-03T00:29:38.639Z,75.3
2016-07-03T00:30:38.622Z,75.1
2016-07-03T00:31:38.595Z,75.2
2016-07-03T00:32:38.574Z,74.91
2016-07-03T00:33:38.564Z,74.91
2016-07-03T00:34:38.523Z,74.15
2016-07-03T00:35:38.507Z,74.73
2016-07-03T00:36:38.483Z,74.53
2016-07-03T00:37:38.458Z,74.05
2016-07-03T00:38:38.435Z,74.34
2016-07-03T00:39:38.417Z,74.34
2016-07-03T00:40:38.394Z,74.05
2016-07-03T00:41:38.363Z,73.96
2016-07-03T00:42:38.345Z,73.77
2016-07-03T00:43:38.323Z,73.58
2016-07-03T00:44:38.299Z,73.77
2016-07-03T00:45:38.277Z,73.48
2016-07-03T00:46:38.254Z,73.58
2016-07-03T00:47:38.233Z,73.39
2016-07-03T00:48:38.207Z,73.1
2016-07-03T00:49:38.184Z,73.48
2016-07-03T00:50:38.165Z,73.19
2016-07-03T00:51:38.141Z,72.78
2016-07-03T00:52:38.118Z,73
2016-07-03T00:53:38.092Z,73.25
2016-07-03T00:54:38.064Z,72.72
2016-07-03T00:55:38.048Z,72.62
2016-07-03T00:56:38.075Z,73.1
2016-07-03T00:57:38.001Z,72.81
2016-07-03T00:58:37.978Z,72.53
2016-07-03T00:59:37.956Z,72.24
2016-07-03T01:00:37.928Z,72.11
2016-07-03T01:01:37.907Z,72.3
2016-07-03T01:02:37.886Z,72.24
2016-07-03T01:03:37.862Z,71.86
2016-07-03T01:04:37.841Z,71.76
2016-07-03T01:05:37.816Z,71.38
2016-07-03T01:06:37.793Z,71.47
2016-07-03T01:07:37.771Z,71.28
2016-07-03T01:08:37.748Z,71.28
2016-07-03T01:09:37.719Z,71
2016-07-03T01:10:37.706Z,71.09
2016-07-03T01:11:37.675Z,71.09
2016-07-03T01:12:37.648Z,71.09
2016-07-03T01:13:37.625Z,70.81
2016-07-03T01:14:37.605Z,70.9
2016-07-03T01:15:37.579Z,71.09
2016-07-03T01:16:37.563Z,71.09
2016-07-03T01:17:37.530Z,71.09
2016-07-03T01:18:38.117Z,71
2016-07-03T01:19:37.502Z,70.77
2016-07-03T01:20:37.461Z,70.81
2016-07-03T01:21:37.448Z,70.87
2016-07-03T01:22:37.422Z,70.67
2016-07-03T01:23:37.399Z,70.9
2016-07-03T01:24:37.379Z,70.29
2016-07-03T01:25:37.352Z,70.77
2016-07-03T01:26:37.329Z,70.58
2016-07-03T01:27:37.307Z,70.71
2016-07-03T01:28:37.276Z,70.39
2016-07-03T01:29:37.261Z,70.67
2016-07-03T01:30:37.235Z,70.61
2016-07-03T01:31:37.214Z,70.1
2016-07-03T01:32:37.188Z,69.91
2016-07-03T01:33:37.167Z,70.14
2016-07-03T01:34:37.138Z,70.42
2016-07-03T01:35:37.118Z,70.2
2016-07-03T01:36:37.105Z,70.2
2016-07-03T01:37:37.071Z,70.01
2016-07-03T01:38:37.065Z,70.2
2016-07-03T01:39:37.021Z,70.14
2016-07-03T01:40:37.007Z,70.01
2016-07-03T01:41:36.979Z,70.01
2016-07-03T01:42:36.961Z,70.1
2016-07-03T01:43:36.935Z,69.91
2016-07-03T01:44:36.911Z,70.2
2016-07-03T01:45:36.888Z,70.1
2016-07-03T01:46:36.866Z,69.82
2016-07-03T01:47:36.846Z,70.1
2016-07-03T01:48:36.820Z,69.82
2016-07-03T01:49:36.795Z,69.82
2016-07-03T01:50:36.771Z,69.91
2016-07-03T01:51:36.748Z,69.82
2016-07-03T01:52:36.721Z,70.1
2016-07-03T01:53:36.702Z,70.01
2016-07-03T01:54:36.679Z,69.82
2016-07-03T01:55:36.658Z,69.91
2016-07-03T01:56:36.630Z,70.01
2016-07-03T01:57:36.608Z,69.91
2016-07-03T01:58:36.585Z,70.01
2016-07-03T01:59:36.562Z,70.01
2016-07-03T02:00:36.542Z,70.1
2016-07-03T02:01:36.520Z,70.1
2016-07-03T02:02:36.497Z,70.01
2016-07-03T02:03:36.475Z,70.1
2016-07-03T02:04:36.451Z,70.2
2016-07-03T02:05:36.428Z,70.01
2016-07-03T02:06:36.406Z,70.01
2016-07-03T02:07:36.381Z,70.39
2016-07-03T02:08:36.357Z,70.39
2016-07-03T02:09:36.333Z,70.58
2016-07-03T02:10:36.321Z,70.39
2016-07-03T02:11:36.289Z,70.58
2016-07-03T02:12:36.277Z,70.39
2016-07-03T02:13:36.242Z,70.39
2016-07-03T02:14:36.216Z,70.1
2016-07-03T02:15:36.196Z,70.2
2016-07-03T02:16:36.168Z,70.48
2016-07-03T02:17:36.149Z,70.1
2016-07-03T02:18:36.133Z,70.01
2016-07-03T02:19:36.098Z,70.1
2016-07-03T02:20:36.076Z,70.48
2016-07-03T02:21:36.051Z,70.58
2016-07-03T02:22:36.030Z,70.1
2016-07-03T02:23:36.003Z,70.1
2016-07-03T02:24:35.983Z,70.1
2016-07-03T02:25:35.961Z,70.2
2016-07-03T02:26:35.941Z,70.2
2016-07-03T02:27:35.920Z,70.2
2016-07-03T02:28:35.894Z,70.2
2016-07-03T02:29:35.867Z,70.1
2016-07-03T02:30:35.847Z,70.1
2016-07-03T02:31:35.824Z,70.1
2016-07-03T02:32:35.799Z,70.2
2016-07-03T02:33:35.778Z,70.29
2016-07-03T02:34:35.752Z,70.1
2016-07-03T02:35:35.728Z,70.1
2016-07-03T02:36:35.708Z,70.01
2016-07-03T02:37:35.680Z,70.01
2016-07-03T02:38:35.665Z,70.1
2016-07-03T02:39:35.635Z,70.48
2016-07-03T02:40:36.297Z,70.48
2016-07-03T02:41:35.593Z,70.1
2016-07-03T02:42:35.563Z,70.29
2016-07-03T02:43:35.550Z,70.1
2016-07-03T02:44:35.521Z,70.2
2016-07-03T02:45:35.497Z,70.1
2016-07-03T02:46:35.475Z,70.48
2016-07-03T02:47:35.451Z,70.39
2016-07-03T02:48:35.428Z,70.01
2016-07-03T02:49:35.403Z,70.2
2016-07-03T02:50:35.381Z,69.91
2016-07-03T02:51:35.357Z,70.01
2016-07-03T02:52:35.333Z,69.91
2016-07-03T02:53:35.310Z,70.1
2016-07-03T02:54:35.287Z,70.1
2016-07-03T02:55:35.266Z,70.1
2016-07-03T02:56:35.293Z,69.91
2016-07-03T02:57:35.215Z,70.01
2016-07-03T02:58:35.192Z,70.48
2016-07-03T02:59:35.171Z,70.29
2016-07-03T03:00:35.144Z,70.48
2016-07-03T03:01:35.124Z,70.2
2016-07-03T03:02:35.098Z,70.39
2016-07-03T03:03:35.070Z,70.2
2016-07-03T03:04:35.050Z,70.2
2016-07-03T03:05:35.026Z,70.2
2016-07-03T03:06:35.002Z,70.39
2016-07-03T03:07:34.978Z,70.39
2016-07-03T03:08:34.957Z,70.1
2016-07-03T03:09:34.936Z,70.1
2016-07-03T03:10:34.911Z,70.58
2016-07-03T03:11:34.887Z,70.39
2016-07-03T03:12:34.865Z,70.77
2016-07-03T03:13:34.842Z,70.39
2016-07-03T03:14:34.815Z,70.48
2016-07-03T03:15:34.793Z,70.67
2016-07-03T03:16:34.767Z,70.39
2016-07-03T03:17:34.747Z,70.39
2016-07-03T03:18:34.723Z,70.48
2016-07-03T03:19:34.700Z,70.39
2016-07-03T03:20:34.674Z,70.67
2016-07-03T03:21:34.654Z,70.48
2016-07-03T03:22:34.629Z,70.77
2016-07-03T03:23:34.608Z,70.58
2016-07-03T03:24:34.584Z,70.39
2016-07-03T03:25:34.559Z,70.67
2016-07-03T03:26:34.536Z,70.48
2016-07-03T03:27:34.506Z,70.48
2016-07-03T03:28:34.491Z,70.67
2016-07-03T03:29:34.467Z,70.77
2016-07-03T03:30:34.446Z,70.77
2016-07-03T03:31:34.419Z,70.87
2016-07-03T03:32:34.397Z,70.87
2016-07-03T03:33:34.387Z,70.87
2016-07-03T03:34:34.350Z,70.58
2016-07-03T03:35:34.327Z,70.29
2016-07-03T03:36:34.300Z,70.39
2016-07-03T03:37:34.278Z,70.77
2016-07-03T03:38:34.247Z,70.58
2016-07-03T03:39:34.228Z,70.87
2016-07-03T03:40:34.204Z,70.58
2016-07-03T03:41:34.180Z,70.48
2016-07-03T03:42:34.156Z,70.67
2016-07-03T03:43:34.132Z,70.67
2016-07-03T03:44:34.110Z,70.87
2016-07-03T03:45:34.096Z,70.67
2016-07-03T03:46:34.070Z,70.67
2016-07-03T03:47:34.050Z,70.58
2016-07-03T03:48:34.023Z,70.67
2016-07-03T03:49:34.001Z,70.67
2016-07-03T03:50:33.985Z,70.67
2016-07-03T03:51:33.955Z,71.06
2016-07-03T03:52:33.930Z,70.67
2016-07-03T03:53:33.914Z,70.77
2016-07-03T03:54:33.882Z,70.58
2016-07-03T03:55:33.860Z,70.77
2016-07-03T03:56:33.838Z,70.77
2016-07-03T03:57:33.816Z,70.48
2016-07-03T03:58:33.794Z,70.67
2016-07-03T03:59:33.771Z,70.48
2016-07-03T04:00:33.745Z,70.58
2016-07-03T04:01:33.728Z,70.77
2016-07-03T04:02:33.698Z,70.87
2016-07-03T04:03:33.676Z,70.58
2016-07-03T04:04:33.652Z,70.2
2016-07-03T04:05:33.630Z,70.48
2016-07-03T04:06:33.605Z,70.58
2016-07-03T04:07:33.586Z,70.67
2016-07-03T04:08:33.555Z,70.58
2016-07-03T04:09:33.539Z,70.77
2016-07-03T04:10:33.516Z,70.48
2016-07-03T04:11:33.493Z,70.77
2016-07-03T04:12:33.474Z,70.58
2016-07-03T04:13:33.448Z,70.67
2016-07-03T04:14:33.422Z,70.77
2016-07-03T04:15:33.404Z,70.77
2016-07-03T04:16:33.376Z,70.77
2016-07-03T04:17:33.355Z,70.67
2016-07-03T04:18:33.331Z,70.67
2016-07-03T04:19:33.308Z,70.58
2016-07-03T04:20:33.286Z,70.77
2016-07-03T04:21:33.267Z,70.58
2016-07-03T04:22:33.236Z,70.58
2016-07-03T04:23:33.224Z,70.67
2016-07-03T04:24:33.196Z,70.67
2016-07-03T04:25:33.173Z,70.48
2016-07-03T04:26:33.143Z,70.58
2016-07-03T04:27:33.126Z,70.77
2016-07-03T04:28:33.105Z,70.58
2016-07-03T04:29:33.084Z,70.81
2016-07-03T04:30:33.056Z,70.33
2016-07-03T04:31:33.041Z,70.42
2016-07-03T04:32:33.015Z,70.33
2016-07-03T04:33:32.994Z,70.23
2016-07-03T04:34:32.970Z,70.14
2016-07-03T04:35:32.949Z,70.33
2016-07-03T04:36:32.926Z,70.14
2016-07-03T04:37:32.901Z,70.14
2016-07-03T04:38:32.880Z,69.76
2016-07-03T04:39:32.857Z,69.76
2016-07-03T04:40:32.837Z,70.04
2016-07-03T04:41:32.814Z,69.76
2016-07-03T04:42:32.791Z,69.56
2016-07-03T04:43:32.769Z,69.66
2016-07-03T04:44:32.748Z,68.99
2016-07-03T04:45:32.727Z,69.09
2016-07-03T04:46:32.701Z,69.18
2016-07-03T04:47:32.684Z,68.9
2016-07-03T04:48:32.661Z,69.12
2016-07-03T04:49:32.638Z,68.64
2016-07-03T04:50:32.626Z,68.64
2016-07-03T04:51:32.597Z,68.55
2016-07-03T04:52:32.573Z,68.74
2016-07-03T04:53:32.553Z,68.16
2016-07-03T04:54:32.530Z,68.64
2016-07-03T04:55:32.508Z,68.16
2016-07-03T04:56:32.486Z,68.26
2016-07-03T04:57:32.463Z,68.16
2016-07-03T04:58:32.443Z,67.59
2016-07-03T04:59:32.424Z,67.4
2016-07-03T05:00:32.399Z,67.24
2016-07-03T05:01:32.379Z,66.86
2016-07-03T05:02:32.356Z,67.14
2016-07-03T05:03:32.340Z,67.05
2016-07-03T05:04:32.321Z,66.96
2016-07-03T05:05:32.294Z,66.57
2016-07-03T05:06:32.274Z,66.38
2016-07-03T05:07:32.254Z,66
2016-07-03T05:08:32.231Z,66.19
2016-07-03T05:09:32.212Z,66.28
2016-07-03T05:10:32.188Z,66.09
2016-07-03T05:11:32.166Z,66.28
2016-07-03T05:12:32.145Z,66.09
2016-07-03T05:13:32.129Z,66.28
2016-07-03T05:14:32.103Z,66.09
2016-07-03T05:15:32.081Z,66.09
2016-07-03T05:16:32.060Z,66.19
2016-07-03T05:17:32.060Z,66.09
2016-07-03T05:18:32.021Z,66.28
2016-07-03T05:19:32.003Z,66.19
2016-07-03T05:20:31.984Z,66
2016-07-03T05:21:31.963Z,65.9
2016-07-03T05:22:31.940Z,65.9
2016-07-03T05:23:31.920Z,66.19
2016-07-03T05:24:32.504Z,66
2016-07-03T05:25:31.882Z,66.09
2016-07-03T05:26:31.861Z,65.61
2016-07-03T05:27:31.843Z,65.52
2016-07-03T05:28:31.821Z,66.09
2016-07-03T05:29:32.400Z,65.71
2016-07-03T05:30:31.785Z,65.71
2016-07-03T05:31:31.769Z,65.61
2016-07-03T05:32:31.740Z,65.71
2016-07-03T05:33:31.724Z,65.94
2016-07-03T05:34:31.699Z,66.13
2016-07-03T05:35:31.681Z,65.55
2016-07-03T05:36:31.658Z,65.74
2016-07-03T05:37:31.637Z,65.45
2016-07-03T05:38:31.617Z,65.45
2016-07-03T05:39:31.597Z,65.65
2016-07-03T05:40:31.577Z,65.65
2016-07-03T05:41:31.556Z,65.65
2016-07-03T05:42:31.538Z,65.55
2016-07-03T05:43:31.519Z,65.74
2016-07-03T05:44:31.497Z,65.65
2016-07-03T05:45:31.477Z,65.45
2016-07-03T05:46:31.457Z,65.55
2016-07-03T05:47:31.438Z,65.45
2016-07-03T05:48:31.417Z,65.65
2016-07-03T05:49:31.397Z,65.45
2016-07-03T05:50:31.375Z,65.84
2016-07-03T05:51:31.354Z,66.13
2016-07-03T05:52:31.336Z,65.74
2016-07-03T05:53:31.329Z,65.84
2016-07-03T05:54:31.293Z,65.94
2016-07-03T05:55:31.275Z,65.74
2016-07-03T05:56:31.254Z,65.94
2016-07-03T05:57:31.235Z,65.84
2016-07-03T05:58:31.217Z,65.94
2016-07-03T05:59:31.195Z,65.94
2016-07-03T06:00:31.176Z,65.17
2016-07-03T06:01:31.156Z,65.84
2016-07-03T06:02:31.135Z,66.13
2016-07-03T06:03:31.120Z,65.65
2016-07-03T06:04:31.095Z,65.74
2016-07-03T06:05:31.077Z,65.74
2016-07-03T06:06:31.057Z,65.74
2016-07-03T06:07:31.036Z,65.45
2016-07-03T06:08:31.017Z,65.45
2016-07-03T06:09:30.996Z,65.55
2016-07-03T06:10:30.977Z,65.68
2016-07-03T06:11:30.956Z,65.55
2016-07-03T06:12:30.938Z,65.84
2016-07-03T06:13:30.918Z,65.65
2016-07-03T06:14:30.898Z,66.13
2016-07-03T06:15:30.877Z,65.94
2016-07-03T06:16:30.859Z,65.78
2016-07-03T06:17:30.838Z,65.78
2016-07-03T06:18:30.817Z,65.88
2016-07-03T06:19:30.800Z,65.74
2016-07-03T06:20:30.804Z,65.58
2016-07-03T06:21:30.762Z,65.55
2016-07-03T06:22:30.742Z,65.58
2016-07-03T06:23:30.724Z,65.78
2016-07-03T06:24:30.700Z,66.25
2016-07-03T06:25:30.680Z,65.65
2016-07-03T06:26:30.657Z,65.58
2016-07-03T06:27:30.641Z,65.58
2016-07-03T06:28:30.622Z,65.97
2016-07-03T06:29:30.604Z,65.49
2016-07-03T06:30:30.587Z,65.2
2016-07-03T06:31:30.565Z,65.68
2016-07-03T06:32:30.552Z,65.2
2016-07-03T06:33:30.532Z,65.49
2016-07-03T06:34:30.504Z,65.39
2016-07-03T06:35:30.482Z,65.68
2016-07-03T06:36:30.471Z,65.2
2016-07-03T06:37:30.450Z,65.05
2016-07-03T06:38:30.435Z,65.52
2016-07-03T06:39:30.408Z,65.62
2016-07-03T06:40:30.396Z,65.05
2016-07-03T06:41:30.367Z,64.37
2016-07-03T06:42:30.351Z,64.95
2016-07-03T06:43:30.327Z,65.23
2016-07-03T06:44:30.313Z,65.14
2016-07-03T06:45:30.294Z,64.95
2016-07-03T06:46:30.274Z,65.2
2016-07-03T06:47:30.255Z,65.39
2016-07-03T06:48:30.235Z,65.88
2016-07-03T06:49:30.216Z,65.88
2016-07-03T06:50:30.195Z,65.97
2016-07-03T06:51:30.172Z,66
2016-07-03T06:52:30.156Z,65.68
2016-07-03T06:53:30.136Z,65.62
2016-07-03T06:54:30.118Z,65.33
2016-07-03T06:55:30.097Z,65.23
2016-07-03T06:56:30.082Z,65.52
2016-07-03T06:57:30.060Z,65.33
2016-07-03T06:58:30.043Z,64.76
2016-07-03T06:59:30.022Z,64.76
2016-07-03T07:00:30.004Z,64.95
2016-07-03T07:01:29.986Z,64.76
2016-07-03T07:02:29.962Z,65.05
2016-07-03T07:03:29.943Z,64.85
2016-07-03T07:04:29.928Z,64.85
2016-07-03T07:05:29.904Z,64.85
2016-07-03T07:06:29.889Z,64.56
2016-07-03T07:07:29.870Z,65.05
2016-07-03T07:08:29.850Z,65.52
2016-07-03T07:09:29.830Z,65.05
2016-07-03T07:10:29.814Z,65.05
2016-07-03T07:11:29.794Z,65.05
2016-07-03T07:12:29.776Z,64.95
2016-07-03T07:13:29.755Z,65.05
2016-07-03T07:14:29.741Z,65.05
2016-07-03T07:15:29.719Z,65.05
2016-07-03T07:16:29.707Z,65.05
2016-07-03T07:17:29.681Z,65.52
2016-07-03T07:18:29.662Z,64.37
2016-07-03T07:19:29.644Z,64.76
2016-07-03T07:20:29.626Z,64.85
2016-07-03T07:21:29.605Z,64.47
2016-07-03T07:22:29.591Z,64.22
2016-07-03T07:23:29.566Z,64.59
2016-07-03T07:24:29.551Z,64.95
2016-07-03T07:25:29.529Z,64.66
2016-07-03T07:26:29.516Z,65.33
2016-07-03T07:27:29.495Z,64.85
2016-07-03T07:28:29.474Z,65.05
2016-07-03T07:29:29.454Z,64.47
2016-07-03T07:30:29.437Z,64.28
2016-07-03T07:31:29.417Z,64.12
2016-07-03T07:32:29.397Z,64.02
2016-07-03T07:33:29.376Z,64.31
2016-07-03T07:34:29.367Z,64.22
2016-07-03T07:35:29.347Z,64.12
2016-07-03T07:36:29.327Z,63.73
2016-07-03T07:37:29.307Z,63.92
2016-07-03T07:38:29.290Z,63.64
2016-07-03T07:39:29.273Z,63.45
2016-07-03T07:40:29.254Z,63.73
2016-07-03T07:41:29.238Z,63.38
2016-07-03T07:42:29.218Z,63.57
2016-07-03T07:43:29.201Z,63.06
2016-07-03T07:44:29.185Z,63.09
2016-07-03T07:45:29.167Z,63.06
2016-07-03T07:46:29.147Z,62.62
2016-07-03T07:47:29.132Z,62.33
2016-07-03T07:48:29.128Z,62.52
2016-07-03T07:49:29.098Z,62.62
2016-07-03T07:50:29.082Z,61.85
2016-07-03T07:51:29.062Z,61.75
2016-07-03T07:52:29.047Z,61.46
2016-07-03T07:53:29.026Z,61.85
2016-07-03T07:54:29.012Z,60.99
2016-07-03T07:55:28.993Z,60.92
2016-07-03T07:56:28.975Z,61.02
2016-07-03T07:57:28.960Z,60.72
2016-07-03T07:58:28.943Z,61.02
2016-07-03T07:59:28.933Z,60.44
2016-07-03T08:00:28.916Z,60.82
2016-07-03T08:01:28.890Z,60.25
2016-07-03T08:02:28.878Z,60.15
2016-07-03T08:03:28.860Z,60.53
2016-07-03T08:04:28.847Z,59.96
2016-07-03T08:05:28.862Z,59.61
2016-07-03T08:06:28.819Z,59.8
2016-07-03T08:07:28.795Z,59.7
2016-07-03T08:08:28.782Z,59.41
2016-07-03T08:09:28.763Z,58.84
2016-07-03T08:10:28.749Z,58.64
2016-07-03T08:11:28.737Z,58.48
2016-07-03T08:12:28.718Z,58.48
2016-07-03T08:13:28.702Z,58.48
2016-07-03T08:14:28.687Z,58
2016-07-03T08:15:28.671Z,57.9
2016-07-03T08:16:28.660Z,57.81
2016-07-03T08:17:28.639Z,57.52
2016-07-03T08:18:28.626Z,57.62
2016-07-03T08:19:28.614Z,56.95
2016-07-03T08:20:28.597Z,56.37
2016-07-03T08:21:28.585Z,56.21
2016-07-03T08:22:28.576Z,55.91
2016-07-03T08:23:28.565Z,55.91
2016-07-03T08:24:28.543Z,56.04
2016-07-03T08:25:28.532Z,54.99
2016-07-03T08:26:28.520Z,55.08
2016-07-03T08:27:28.506Z,54.5
2016-07-03T08:28:28.491Z,54.12
2016-07-03T08:29:28.478Z,53.57
2016-07-03T08:30:28.468Z,53.38
2016-07-03T08:31:28.462Z,53.19
2016-07-03T08:32:28.448Z,52.99
2016-07-03T08:33:28.438Z,52.61
2016-07-03T08:34:28.424Z,52.42
2016-07-03T08:35:28.416Z,51.86
2016-07-03T08:36:28.405Z,51.86
2016-07-03T08:37:28.393Z,51.67
2016-07-03T08:38:28.382Z,51.76
2016-07-03T08:39:28.370Z,50.99
2016-07-03T08:40:28.357Z,50.9
2016-07-03T08:41:28.350Z,51.67
2016-07-03T08:42:28.336Z,50.71
2016-07-03T08:43:28.324Z,50.61
2016-07-03T08:44:28.312Z,50.15
2016-07-03T08:45:28.304Z,50.15
2016-07-03T08:46:28.292Z,49.68
2016-07-03T08:47:28.282Z,49.1
2016-07-03T08:48:28.268Z,48.93
2016-07-03T08:49:28.260Z,48.83
2016-07-03T08:50:28.252Z,47.89
2016-07-03T08:51:28.246Z,47.31
2016-07-03T08:52:28.233Z,47.51
2016-07-03T08:53:28.228Z,47.03
2016-07-03T08:54:28.214Z,46.28
2016-07-03T08:55:28.205Z,46.18
2016-07-03T08:56:28.196Z,46.28
2016-07-03T08:57:28.185Z,45.6
2016-07-03T08:58:28.167Z,45.7
2016-07-03T08:59:28.164Z,45.79
2016-07-03T09:00:28.157Z,45.7
2016-07-03T09:01:28.149Z,45.7
2016-07-03T09:02:28.340Z,45.51
2016-07-03T09:03:28.180Z,45.6
2016-07-03T09:04:28.121Z,45.7
2016-07-03T09:05:28.119Z,45.7
2016-07-03T09:06:28.109Z,45.41
2016-07-03T09:07:28.096Z,45.03
2016-07-03T09:08:28.090Z,45.12
2016-07-03T09:09:28.090Z,45.03
2016-07-03T09:10:28.071Z,45.03
2016-07-03T09:11:28.066Z,44.93
2016-07-03T09:12:28.056Z,45.21
2016-07-03T09:13:28.044Z,45.31
2016-07-03T09:14:28.035Z,45.58
2016-07-03T09:15:28.025Z,45.2
2016-07-03T09:16:28.011Z,45.12
2016-07-03T09:17:28.004Z,45.03
2016-07-03T09:18:27.997Z,45.12
2016-07-03T09:19:27.987Z,44.54
2016-07-03T09:20:27.981Z,44.06
2016-07-03T09:21:27.971Z,43.5
2016-07-03T09:22:27.957Z,43.5
2016-07-03T09:23:27.946Z,42.94
2016-07-03T09:24:27.943Z,42.36
2016-07-03T09:25:27.933Z,41.78
2016-07-03T09:26:27.920Z,41.98
2016-07-03T09:27:27.916Z,41.5
2016-07-03T09:28:27.904Z,41.88
2016-07-03T09:29:27.898Z,42.08
2016-07-03T09:30:27.892Z,41.69
2016-07-03T09:31:27.885Z,41.5
2016-07-03T09:32:27.879Z,41.3
2016-07-03T09:33:28.468Z,40.53
2016-07-03T09:34:27.857Z,40.92
2016-07-03T09:35:27.852Z,40.75
2016-07-03T09:36:27.844Z,39.7
2016-07-03T09:37:27.843Z,39.51
2016-07-03T09:38:27.830Z,39.03
2016-07-03T09:39:27.828Z,39.12
2016-07-03T09:40:27.822Z,39.12
2016-07-03T09:41:27.815Z,38.93
2016-07-03T09:42:27.807Z,38.54
2016-07-03T09:43:27.801Z,38.54
2016-07-03T09:44:27.793Z,38.18
2016-07-03T09:45:27.787Z,38.37
2016-07-03T09:46:27.780Z,38.28
2016-07-03T09:47:27.776Z,38.37
2016-07-03T09:48:27.765Z,38.54
2016-07-03T09:49:27.756Z,38.54
2016-07-03T09:50:27.748Z,38.64
2016-07-03T09:51:27.745Z,38.74
2016-07-03T09:52:27.732Z,38.16
2016-07-03T09:53:27.721Z,37.6
2016-07-03T09:54:27.720Z,37.79
2016-07-03T09:55:27.712Z,37.79
2016-07-03T09:56:27.698Z,37.6
2016-07-03T09:57:27.696Z,37.88
2016-07-03T09:58:27.688Z,38.06
2016-07-03T09:59:27.674Z,38.25
2016-07-03T10:00:27.673Z,38.45
2016-07-03T10:01:27.666Z,38.45
2016-07-03T10:02:27.656Z,37.96
2016-07-03T10:03:27.650Z,37.77
2016-07-03T10:04:27.639Z,37.77
2016-07-03T10:05:27.628Z,37.67
2016-07-03T10:06:27.628Z,37.29
2016-07-03T10:07:27.614Z,36.63
2016-07-03T10:08:27.603Z,36.16
2016-07-03T10:09:27.599Z,36.16
2016-07-03T10:10:27.593Z,36.16
2016-07-03T10:11:27.583Z,36.55
2016-07-03T10:12:27.575Z,37.12
2016-07-03T10:13:27.570Z,37.12
2016-07-03T10:14:27.559Z,37.29
2016-07-03T10:15:27.549Z,37.48
2016-07-03T10:16:27.541Z,37.38
2016-07-03T10:17:27.535Z,37.58
2016-07-03T10:18:27.532Z,37.48
2016-07-03T10:19:27.516Z,37.58
2016-07-03T10:20:27.504Z,37.58
2016-07-03T10:21:27.493Z,37.77
2016-07-03T10:22:27.483Z,37.67
2016-07-03T10:23:27.477Z,37.87
2016-07-03T10:24:27.464Z,37.87
2016-07-03T10:25:27.457Z,37.96
2016-07-03T10:26:27.445Z,37.56
2016-07-03T10:27:27.435Z,38.14
2016-07-03T10:28:27.427Z,38.31
2016-07-03T10:29:27.406Z,38.91
2016-07-03T10:30:27.402Z,39.57
2016-07-03T10:31:27.391Z,40.72
2016-07-03T10:32:27.379Z,42.83
2016-07-03T10:33:27.367Z,44.45
2016-07-03T10:34:27.363Z,45.7
2016-07-03T10:35:27.338Z,46.45
2016-07-03T10:36:27.325Z,47.7
2016-07-03T10:37:27.318Z,48.16
2016-07-03T10:38:27.299Z,48.74
2016-07-03T10:39:27.279Z,48.23
2016-07-03T10:40:27.268Z,49.1
2016-07-03T10:41:27.257Z,49.38
2016-07-03T10:42:27.238Z,50.06
2016-07-03T10:43:27.226Z,50.54
2016-07-03T10:44:27.210Z,50.45
2016-07-03T10:45:27.202Z,51.02
2016-07-03T10:46:27.182Z,50.71
2016-07-03T10:47:27.165Z,50.9
2016-07-03T10:48:27.154Z,51.38
2016-07-03T10:49:27.137Z,51.67
2016-07-03T10:50:27.122Z,51.57
2016-07-03T10:51:27.106Z,51.76
2016-07-03T10:52:27.091Z,51.96
2016-07-03T10:53:27.080Z,52.54
2016-07-03T10:54:27.063Z,52.92
2016-07-03T10:55:27.048Z,53.4
2016-07-03T10:56:27.035Z,54.08
2016-07-03T10:57:27.021Z,54.17
2016-07-03T10:58:27.012Z,54.85
2016-07-03T10:59:26.989Z,54.85
2016-07-03T11:00:27.577Z,54.85
2016-07-03T11:01:26.964Z,54.36
2016-07-03T11:02:26.943Z,54.27
2016-07-03T11:03:26.928Z,53.02
2016-07-03T11:04:26.919Z,52.54
2016-07-03T11:05:26.905Z,52.34
2016-07-03T11:06:26.894Z,51.67
2016-07-03T11:07:26.874Z,51.38
2016-07-03T11:08:26.867Z,51.19
2016-07-03T11:09:26.850Z,50.23
2016-07-03T11:10:26.845Z,50.15
2016-07-03T11:11:26.825Z,49.19
2016-07-03T11:12:26.808Z,48.74
2016-07-03T11:13:26.800Z,47.51
2016-07-03T11:14:26.788Z,46.47
2016-07-03T11:15:26.781Z,45.31
2016-07-03T11:16:26.769Z,44.18
2016-07-03T11:17:26.765Z,43.14
2016-07-03T11:18:26.752Z,42.39
2016-07-03T11:19:26.746Z,41.25
2016-07-03T11:20:26.734Z,40.01
2016-07-03T11:21:26.732Z,39.14
2016-07-03T11:22:26.724Z,38.2
2016-07-03T11:23:26.716Z,37.24
2016-07-03T11:24:26.707Z,36.49
2016-07-03T11:25:26.705Z,35.64
2016-07-03T11:26:26.700Z,35.15
2016-07-03T11:27:26.693Z,34.2
2016-07-03T11:28:26.682Z,33.33
2016-07-03T11:29:26.689Z,32.37
2016-07-03T11:30:26.682Z,31.71
2016-07-03T11:31:26.671Z,31.23
2016-07-03T11:32:26.673Z,30.65
2016-07-03T11:33:26.672Z,30.07
2016-07-03T11:34:26.663Z,29.6
2016-07-03T11:35:26.659Z,29.3
2016-07-03T11:36:26.660Z,28.74
2016-07-03T11:37:26.657Z,28.64
2016-07-03T11:38:26.657Z,28.74
2016-07-03T11:39:26.653Z,28.44
2016-07-03T11:40:26.649Z,28.54
2016-07-03T11:41:26.646Z,28.44
2016-07-03T11:42:26.641Z,28.8
2016-07-03T11:43:26.638Z,28.61
2016-07-03T11:44:26.633Z,28.89
2016-07-03T11:45:26.630Z,29.37
2016-07-03T11:46:26.617Z,29.17
2016-07-03T11:47:26.617Z,29.27
2016-07-03T11:48:26.944Z,29.26
2016-07-03T11:49:26.602Z,29.16
2016-07-03T11:50:26.630Z,29.55
2016-07-03T11:51:26.588Z,29.64
2016-07-03T11:52:26.580Z,29.63
2016-07-03T11:53:26.570Z,30.78
2016-07-03T11:54:26.563Z,30.78
2016-07-03T11:55:26.555Z,31.34
2016-07-03T11:56:26.547Z,31.83
2016-07-03T11:57:26.534Z,32.01
2016-07-03T11:58:26.523Z,32.39
2016-07-03T11:59:26.513Z,32.96
2016-07-03T12:00:26.504Z,33.34
2016-07-03T12:01:26.492Z,33.81
2016-07-03T12:02:26.485Z,34.29
2016-07-03T12:03:26.470Z,35.05
2016-07-03T12:04:26.459Z,35.52
2016-07-03T12:05:26.440Z,37.06
2016-07-03T12:06:26.435Z,39.45
2016-07-03T12:07:26.417Z,43.17
2016-07-03T12:08:26.412Z,45.83
2016-07-03T12:09:26.394Z,49.17
2016-07-03T12:10:26.381Z,51.55
2016-07-03T12:11:26.362Z,54.02
2016-07-03T12:12:26.349Z,56.56
2016-07-03T12:13:26.334Z,59.61
2016-07-03T12:14:26.324Z,61.3
2016-07-03T12:15:26.302Z,62.45
2016-07-03T12:16:26.288Z,63.89
2016-07-03T12:17:26.267Z,65.11
2016-07-03T12:18:26.250Z,66.45
2016-07-03T12:19:26.232Z,67.5
2016-07-03T12:20:26.217Z,68.81
2016-07-03T12:21:26.199Z,70.25
2016-07-03T12:22:26.181Z,71.11
2016-07-03T12:23:26.159Z,71.31
2016-07-03T12:24:26.145Z,71.78
2016-07-03T12:25:26.123Z,72.07
2016-07-03T12:26:26.110Z,71.94
2016-07-03T12:27:26.086Z,72.52
2016-07-03T12:28:26.068Z,73.19
2016-07-03T12:29:26.050Z,73.86
2016-07-03T12:30:26.037Z,74.52
2016-07-03T12:31:26.009Z,75.16
2016-07-03T12:32:25.991Z,76.5
2016-07-03T12:33:25.969Z,76.4
2016-07-03T12:34:25.953Z,76.89
2016-07-03T12:35:25.933Z,77.17
2016-07-03T12:36:25.914Z,78.03
2016-07-03T12:37:25.892Z,78.7
2016-07-03T12:38:25.872Z,79.08
2016-07-03T12:39:25.857Z,78.99
2016-07-03T12:40:25.833Z,79.66
2016-07-03T12:41:25.814Z,79.95
2016-07-03T12:42:25.797Z,80.56
2016-07-03T12:43:25.779Z,80.76
2016-07-03T12:44:25.760Z,80.66
2016-07-03T12:45:25.744Z,79.8
2016-07-03T12:46:25.734Z,79.89
2016-07-03T12:47:25.703Z,80.66
2016-07-03T12:48:25.685Z,80.66
2016-07-03T12:49:25.667Z,80.79
2016-07-03T12:50:25.660Z,81.08
2016-07-03T12:51:25.630Z,81.66
2016-07-03T12:52:25.610Z,81.37
2016-07-03T12:53:25.592Z,81.08
2016-07-03T12:54:25.572Z,81.56
2016-07-03T12:55:25.556Z,80.7
2016-07-03T12:56:25.539Z,79.83